createdAt,value
2018-09-09T00:00:01.369Z,12.13
2018-09-09T00:02:29.305Z,10.87
2018-09-09T00:04:57.281Z,11.40
2018-09-09T00:07:25.150Z,10.53
2018-09-09T00:09:53.976Z,10.37
2018-09-09T00:12:21.918Z,10.07
2018-09-09T00:14:50.081Z,10.13
2018-09-09T00:17:18.037Z,10.53
2018-09-09T00:19:45.997Z,10.30
2018-09-09T00:22:13.884Z,10.47
2018-09-09T00:24:41.805Z,10.80
2018-09-09T00:27:09.702Z,10.80
2018-09-09T00:29:37.581Z,11.07
2018-09-09T00:32:05.524Z,10.47
2018-09-09T00:34:33.403Z,10.47
2018-09-09T00:37:01.427Z,10.10
2018-09-09T00:39:29.340Z,11.13
2018-09-09T00:41:57.274Z,10.77
2018-09-09T00:44:25.120Z,10.90
2018-09-09T00:46:53.052Z,10.83
2018-09-09T00:49:26.581Z,10.37
2018-09-09T00:52:00.150Z,10.17
2018-09-09T00:54:28.134Z,10.13
2018-09-09T00:56:56.013Z,10.57
2018-09-09T00:59:23.963Z,11.30
2018-09-09T01:01:51.939Z,9.87
2018-09-09T01:04:19.923Z,9.80
2018-09-09T01:06:47.773Z,11.27
2018-09-09T01:09:16.596Z,9.97
2018-09-09T01:11:44.557Z,11.13
2018-09-09T01:14:12.515Z,10.30
2018-09-09T01:16:40.406Z,10.57
2018-09-09T01:19:08.321Z,10.40
2018-09-09T01:21:36.269Z,9.33
2018-09-09T01:24:04.116Z,10.27
2018-09-09T01:26:32.067Z,9.57
2018-09-09T01:28:59.993Z,10.10
2018-09-09T01:31:27.888Z,10.20
2018-09-09T01:33:55.752Z,9.40
2018-09-09T01:36:23.685Z,9.70
2018-09-09T01:38:51.647Z,9.70
2018-09-09T01:41:19.497Z,9.57
2018-09-09T01:43:47.324Z,9.57
2018-09-09T01:46:16.264Z,9.23
2018-09-09T01:48:45.116Z,9.73
2018-09-09T01:51:12.998Z,9.40
2018-09-09T01:53:40.876Z,9.90
2018-09-09T01:56:08.720Z,8.77
2018-09-09T01:58:36.654Z,9.43
2018-09-09T02:01:04.541Z,8.93
2018-09-09T02:03:32.440Z,8.90
2018-09-09T02:06:00.345Z,9.87
2018-09-09T02:08:28.206Z,9.43
2018-09-09T02:10:59.234Z,9.73
2018-09-09T02:13:27.486Z,9.53
2018-09-09T02:15:55.413Z,9.30
2018-09-09T02:18:24.257Z,9.77
2018-09-09T02:20:52.153Z,9.57
2018-09-09T02:23:20.017Z,9.40
2018-09-09T02:25:48.039Z,9.47
2018-09-09T02:28:15.956Z,9.60
2018-09-09T02:30:43.836Z,9.70
2018-09-09T02:33:12.248Z,10.13
2018-09-09T02:35:40.192Z,9.70
2018-09-09T02:38:08.131Z,9.40
2018-09-09T02:40:36.033Z,10.17
2018-09-09T02:43:04.015Z,9.33
2018-09-09T02:45:31.904Z,9.60
2018-09-09T02:47:59.843Z,9.67
2018-09-09T02:50:27.801Z,9.70
2018-09-09T02:52:55.773Z,9.93
2018-09-09T02:55:24.683Z,9.73
2018-09-09T02:57:52.618Z,9.67
2018-09-09T03:00:20.566Z,9.60
2018-09-09T03:02:48.417Z,10.00
2018-09-09T03:05:16.350Z,11.10
2018-09-09T03:07:44.273Z,10.00
2018-09-09T03:10:12.148Z,10.07
2018-09-09T03:12:40.074Z,9.33
2018-09-09T03:15:07.987Z,9.90
2018-09-09T03:17:35.880Z,10.50
2018-09-09T03:20:03.809Z,9.50
2018-09-09T03:22:31.713Z,10.50
2018-09-09T03:24:59.701Z,10.00
2018-09-09T03:27:27.642Z,11.20
2018-09-09T03:29:55.613Z,10.57
2018-09-09T03:32:23.579Z,9.73
2018-09-09T03:34:51.509Z,9.93
2018-09-09T03:37:19.344Z,10.10
2018-09-09T03:39:47.314Z,10.00
2018-09-09T03:42:16.216Z,9.93
2018-09-09T03:44:44.121Z,10.13
2018-09-09T03:47:11.996Z,9.93
2018-09-09T03:49:39.845Z,10.00
2018-09-09T03:52:07.741Z,10.70
2018-09-09T03:54:35.726Z,10.10
2018-09-09T03:57:03.633Z,9.97
2018-09-09T03:59:31.562Z,10.60
2018-09-09T04:01:59.498Z,10.43
2018-09-09T04:04:27.352Z,10.00
2018-09-09T04:06:55.251Z,10.40
2018-09-09T04:09:23.245Z,10.23
2018-09-09T04:11:51.149Z,9.70
2018-09-09T04:14:19.010Z,10.00
2018-09-09T04:16:46.884Z,9.87
2018-09-09T04:19:14.770Z,9.97
2018-09-09T04:21:48.217Z,9.50
2018-09-09T04:24:16.093Z,9.50
2018-09-09T04:26:43.972Z,9.10
2018-09-09T04:29:11.870Z,10.03
2018-09-09T04:31:39.778Z,10.30
2018-09-09T04:34:07.808Z,10.17
2018-09-09T04:36:35.641Z,9.47
2018-09-09T04:39:04.494Z,9.77
2018-09-09T04:41:32.461Z,10.00
2018-09-09T04:44:01.273Z,9.27
2018-09-09T04:46:29.302Z,10.37
2018-09-09T04:48:57.194Z,9.00
2018-09-09T04:51:25.103Z,9.37
2018-09-09T04:53:53.051Z,8.97
2018-09-09T04:56:20.892Z,9.50
2018-09-09T04:58:48.969Z,9.03
2018-09-09T05:01:16.844Z,9.20
2018-09-09T05:03:44.704Z,9.37
2018-09-09T05:06:12.542Z,9.13
2018-09-09T05:08:40.467Z,9.57
2018-09-09T05:11:08.362Z,9.10
2018-09-09T05:13:36.246Z,8.47
2018-09-09T05:16:04.205Z,9.70
2018-09-09T05:18:32.086Z,9.50
2018-09-09T05:21:00.054Z,9.17
2018-09-09T05:23:28.062Z,9.07
2018-09-09T05:25:55.924Z,8.50
2018-09-09T05:28:23.837Z,9.10
2018-09-09T05:30:51.713Z,8.70
2018-09-09T05:33:19.611Z,8.93
2018-09-09T05:35:47.484Z,8.43
2018-09-09T05:38:15.416Z,7.83
2018-09-09T05:40:43.327Z,7.73
2018-09-09T05:43:11.180Z,7.90
2018-09-09T05:45:39.087Z,7.90
2018-09-09T05:48:06.942Z,8.30
2018-09-09T05:50:34.821Z,7.90
2018-09-09T05:53:03.710Z,8.00
2018-09-09T05:55:31.634Z,8.20
2018-09-09T05:57:59.630Z,7.50
2018-09-09T06:00:27.537Z,7.87
2018-09-09T06:02:55.438Z,7.90
2018-09-09T06:05:23.348Z,8.67
2018-09-09T06:07:51.306Z,8.43
2018-09-09T06:10:19.218Z,8.00
2018-09-09T06:12:47.082Z,8.27
2018-09-09T06:15:15.007Z,8.17
2018-09-09T06:17:42.942Z,7.90
2018-09-09T06:20:10.874Z,8.00
2018-09-09T06:22:38.774Z,8.60
2018-09-09T06:25:06.782Z,8.17
2018-09-09T06:27:34.632Z,7.93
2018-09-09T06:30:02.619Z,8.23
2018-09-09T06:32:30.468Z,7.87
2018-09-09T06:34:58.356Z,7.70
2018-09-09T06:37:26.310Z,7.00
2018-09-09T06:39:54.254Z,7.00
2018-09-09T06:42:22.231Z,7.27
2018-09-09T06:44:50.163Z,7.30
2018-09-09T06:47:18.054Z,7.10
2018-09-09T06:49:46.002Z,7.10
2018-09-09T06:52:13.812Z,7.27
2018-09-09T06:54:41.720Z,6.87
2018-09-09T06:57:09.574Z,7.97
2018-09-09T06:59:38.499Z,8.47
2018-09-09T07:02:07.330Z,7.27
2018-09-09T07:04:35.137Z,7.87
2018-09-09T07:07:03.035Z,7.10
2018-09-09T07:09:30.944Z,7.43
2018-09-09T07:11:58.968Z,7.33
2018-09-09T07:14:27.747Z,7.60
2018-09-09T07:16:55.666Z,7.70
2018-09-09T07:19:24.639Z,7.47
2018-09-09T07:21:53.615Z,7.80
2018-09-09T07:24:22.435Z,7.37
2018-09-09T07:26:50.354Z,7.77
2018-09-09T07:29:19.264Z,7.30
2018-09-09T07:31:48.150Z,7.77
2018-09-09T07:34:17.173Z,7.70
2018-09-09T07:36:44.965Z,7.83
2018-09-09T07:39:13.852Z,8.20
2018-09-09T07:41:41.697Z,8.57
2018-09-09T07:44:10.626Z,8.47
2018-09-09T07:46:38.530Z,8.63
2018-09-09T07:49:07.360Z,7.50
2018-09-09T07:51:35.274Z,7.70
2018-09-09T07:54:03.194Z,8.13
2018-09-09T07:56:31.078Z,8.80
2018-09-09T07:58:58.966Z,7.80
2018-09-09T08:01:26.865Z,8.07
2018-09-09T08:03:54.860Z,7.17
2018-09-09T08:06:22.823Z,7.33
2018-09-09T08:13:45.971Z,7.20
2018-09-09T08:16:13.832Z,7.50
2018-09-09T08:18:41.685Z,7.40
2018-09-09T08:21:09.638Z,6.07
2018-09-09T08:23:37.537Z,6.40
2018-09-09T08:26:05.452Z,6.60
2018-09-09T08:28:33.406Z,6.70
2018-09-09T08:31:02.233Z,6.93
2018-09-09T08:33:30.121Z,7.37
2018-09-09T08:35:58.994Z,6.33
2018-09-09T08:38:26.854Z,5.83
2018-09-09T08:40:54.757Z,5.80
2018-09-09T08:43:22.557Z,6.20
2018-09-09T08:45:50.487Z,5.97
2018-09-09T08:48:19.357Z,6.20
2018-09-09T08:50:47.212Z,6.70
2018-09-09T08:53:15.080Z,6.10
2018-09-09T08:55:42.979Z,6.00
2018-09-09T08:58:10.788Z,5.33
2018-09-09T09:00:39.764Z,5.97
2018-09-09T09:03:07.628Z,5.47
2018-09-09T09:05:35.563Z,5.50
2018-09-09T09:08:03.469Z,5.00
2018-09-09T09:10:31.352Z,5.30
2018-09-09T09:12:59.281Z,5.23
2018-09-09T09:15:28.137Z,4.80
2018-09-09T09:17:56.058Z,5.07
2018-09-09T09:20:24.953Z,5.33
2018-09-09T09:22:52.902Z,4.97
2018-09-09T09:25:20.841Z,4.83
2018-09-09T09:27:48.717Z,4.80
2018-09-09T09:30:16.525Z,4.87
2018-09-09T09:32:46.015Z,4.47
2018-09-09T09:35:13.962Z,4.87
2018-09-09T09:37:43.843Z,5.07
2018-09-09T09:40:11.746Z,5.17
2018-09-09T09:42:39.624Z,5.10
2018-09-09T09:45:07.554Z,4.50
2018-09-09T09:47:35.429Z,4.60
2018-09-09T09:50:03.317Z,4.60
2018-09-09T09:52:31.133Z,4.50
2018-09-09T09:54:59.133Z,4.53
2018-09-09T09:57:27.075Z,4.30
2018-09-09T09:59:55.005Z,4.27
2018-09-09T10:02:22.942Z,4.10
2018-09-09T10:04:50.780Z,4.00
2018-09-09T10:07:18.660Z,4.00
2018-09-09T10:09:46.570Z,3.77
2018-09-09T10:12:14.456Z,4.37
2018-09-09T10:14:42.370Z,3.80
2018-09-09T10:17:10.292Z,4.00
2018-09-09T10:19:39.175Z,4.00
2018-09-09T10:22:07.105Z,3.90
2018-09-09T10:24:35.031Z,3.93
2018-09-09T10:27:02.937Z,4.33
2018-09-09T10:29:30.843Z,3.77
2018-09-09T10:31:58.770Z,4.00
2018-09-09T10:34:26.642Z,3.80
2018-09-09T10:36:54.562Z,3.90
2018-09-09T10:39:22.569Z,3.57
2018-09-09T10:41:50.523Z,3.73
2018-09-09T10:44:18.438Z,4.00
2018-09-09T10:46:46.496Z,4.20
2018-09-09T10:49:14.389Z,4.17
2018-09-09T10:51:42.354Z,3.70
2018-09-09T10:54:10.228Z,3.80
2018-09-09T10:56:38.124Z,3.40
2018-09-09T10:59:06.022Z,3.80
2018-09-09T11:01:33.888Z,3.80
2018-09-09T11:04:01.704Z,3.70
2018-09-09T11:08:38.085Z,3.60
2018-09-09T11:11:06.047Z,4.83
2018-09-09T11:13:33.961Z,3.50
2018-09-09T11:16:01.855Z,4.07
2018-09-09T11:18:29.702Z,3.57
2018-09-09T11:20:57.585Z,3.30
2018-09-09T11:23:25.433Z,3.10
2018-09-09T11:25:53.340Z,3.23
2018-09-09T11:28:21.216Z,3.30
2018-09-09T11:30:49.226Z,3.30
2018-09-09T11:33:17.120Z,3.40
2018-09-09T11:35:45.065Z,2.93
2018-09-09T11:38:13.051Z,2.90
2018-09-09T11:40:41.004Z,3.30
2018-09-09T11:43:08.908Z,3.03
2018-09-09T11:45:36.758Z,3.00
2018-09-09T11:48:04.639Z,2.90
2018-09-09T11:50:33.457Z,3.00
2018-09-09T12:02:50.798Z,3.10
2018-09-09T12:05:18.637Z,2.90
2018-09-09T12:53:07.654Z,2.63
2018-09-09T13:00:29.644Z,2.80
2018-09-09T13:02:57.537Z,2.60
2018-09-09T13:05:25.424Z,2.30
2018-09-09T13:07:53.332Z,2.60
2018-09-09T13:10:21.347Z,2.47
2018-09-09T13:12:54.773Z,2.20
2018-09-09T13:15:22.882Z,3.73
2018-09-09T13:17:50.994Z,2.20
2018-09-09T13:20:18.842Z,2.70
2018-09-09T13:22:46.706Z,2.57
2018-09-09T13:25:14.578Z,2.40
2018-09-09T13:27:42.398Z,2.60
2018-09-09T13:30:10.334Z,2.80
2018-09-09T13:32:38.143Z,2.77
2018-09-09T13:35:05.965Z,2.30
2018-09-09T13:37:33.782Z,2.30
2018-09-09T13:40:01.612Z,2.67
2018-09-09T13:42:29.393Z,2.30
2018-09-09T13:44:57.294Z,2.33
2018-09-09T13:47:25.135Z,2.30
2018-09-09T13:49:52.949Z,2.40
2018-09-09T13:52:20.862Z,2.60
2018-09-09T13:54:48.641Z,2.43
2018-09-09T13:57:16.422Z,2.57
2018-09-09T13:59:44.288Z,2.90
2018-09-09T14:02:12.068Z,2.40
2018-09-09T14:04:39.898Z,2.63
2018-09-09T14:07:07.775Z,2.47
2018-09-09T14:09:35.757Z,2.80
2018-09-09T14:12:03.663Z,2.30
2018-09-09T14:14:31.718Z,2.70
2018-09-09T14:16:59.599Z,2.40
2018-09-09T14:19:27.433Z,2.30
2018-09-09T14:21:55.322Z,2.35
2018-09-09T14:24:23.177Z,2.45
2018-09-09T14:26:51.087Z,2.20
2018-09-09T14:29:18.918Z,2.50
2018-09-09T14:31:46.757Z,2.20
2018-09-09T14:34:14.628Z,2.70
2018-09-09T14:36:42.461Z,2.50
2018-09-09T14:46:32.077Z,2.40
2018-09-09T15:18:25.138Z,2.75
2018-09-09T15:20:53.028Z,2.50
2018-09-09T15:23:20.878Z,2.70
2018-09-09T15:30:42.921Z,2.42
2018-09-09T15:33:10.773Z,2.67
2018-09-09T15:35:38.625Z,2.52
2018-09-09T15:38:06.508Z,2.30
2018-09-09T15:40:34.313Z,2.70
2018-09-09T15:43:02.190Z,2.90
2018-09-09T15:45:30.079Z,2.33
2018-09-09T15:47:57.885Z,2.10
2018-09-09T15:50:25.762Z,2.30
2018-09-09T15:52:53.634Z,2.53
2018-09-09T15:55:21.445Z,2.47
2018-09-09T15:57:49.240Z,2.33
2018-09-09T16:00:17.156Z,1.92
2018-09-09T16:02:44.904Z,2.20
2018-09-09T16:05:12.725Z,2.30
2018-09-09T16:07:40.565Z,2.40
2018-09-09T16:10:08.390Z,2.30
2018-09-09T16:12:36.247Z,2.40
2018-09-09T16:15:04.252Z,2.10
2018-09-09T16:17:32.065Z,2.30
2018-09-09T16:19:59.909Z,2.10
2018-09-09T17:01:23.430Z,2.80
2018-09-09T17:03:51.308Z,3.30
2018-09-09T17:47:42.872Z,3.40
2018-09-09T17:50:10.729Z,4.50
2018-09-09T17:52:38.587Z,3.83
2018-09-09T17:55:06.447Z,4.10
2018-09-09T17:57:34.304Z,4.20
2018-09-09T18:00:02.112Z,5.20
2018-09-09T18:02:29.993Z,3.83
2018-09-09T18:04:57.923Z,4.57
2018-09-09T18:07:25.799Z,4.73
2018-09-09T18:09:53.678Z,4.30
2018-09-09T18:12:21.500Z,4.80
2018-09-09T18:14:49.289Z,4.60
2018-09-09T18:17:17.216Z,4.03
2018-09-09T18:19:45.057Z,4.73
2018-09-09T18:22:12.940Z,4.77
2018-09-09T18:24:40.991Z,5.30
2018-09-09T18:27:08.916Z,5.20
2018-09-09T18:29:36.828Z,4.77
2018-09-09T18:32:04.726Z,4.87
2018-09-09T18:34:32.732Z,5.70
2018-09-09T18:37:00.832Z,7.13
2018-09-09T18:39:28.758Z,5.30
2018-09-09T18:41:56.654Z,5.13
2018-09-09T18:44:24.580Z,5.60
2018-09-09T18:46:52.429Z,8.13
2018-09-09T18:49:20.332Z,6.00
2018-09-09T18:51:48.291Z,5.13
2018-09-09T18:54:16.219Z,5.63
2018-09-09T18:56:44.144Z,5.80
2018-09-09T18:59:12.074Z,5.60
2018-09-09T19:01:40.017Z,5.87
2018-09-09T19:04:07.967Z,5.57
2018-09-09T19:06:35.945Z,6.47
2018-09-09T19:09:04.150Z,5.90
2018-09-09T19:11:32.014Z,6.10
2018-09-09T19:13:59.987Z,5.80
2018-09-09T19:16:27.890Z,6.93
2018-09-09T19:18:55.786Z,6.50
2018-09-09T19:21:23.703Z,5.87
2018-09-09T19:26:38.287Z,6.40
2018-09-09T19:29:06.499Z,5.60
2018-09-09T19:31:34.556Z,6.50
2018-09-09T19:34:02.605Z,8.27
2018-09-09T19:36:30.525Z,6.07
2018-09-09T19:38:58.495Z,6.10
2018-09-09T19:41:26.628Z,6.87
2018-09-09T19:43:54.506Z,6.33
2018-09-09T19:46:22.395Z,5.93
2018-09-09T19:48:50.555Z,6.60
2018-09-09T19:51:18.420Z,6.27
2018-09-09T19:53:46.302Z,7.80
2018-09-09T19:56:14.169Z,6.87
2018-09-09T19:58:42.101Z,7.37
2018-09-09T20:01:10.134Z,8.33
2018-09-09T20:03:38.172Z,11.07
2018-09-09T20:06:06.350Z,7.47
2018-09-09T20:08:34.225Z,8.17
2018-09-09T20:11:02.488Z,7.50
2018-09-09T20:13:30.412Z,7.33
2018-09-09T20:15:58.357Z,7.83
2018-09-09T20:18:26.436Z,8.00
2018-09-09T20:20:54.446Z,6.90
2018-09-09T20:23:22.393Z,6.80
2018-09-09T20:25:50.409Z,6.87
2018-09-09T20:28:18.330Z,7.10
2018-09-09T20:30:46.273Z,7.20
2018-09-09T20:33:14.286Z,7.17
2018-09-09T20:35:42.277Z,7.00
2018-09-09T20:38:10.144Z,6.93
2018-09-09T20:40:37.954Z,7.63
2018-09-09T20:43:05.887Z,7.43
2018-09-09T20:45:33.805Z,8.03
2018-09-09T20:48:03.757Z,7.40
2018-09-09T20:50:31.632Z,7.30
2018-09-09T20:52:59.518Z,6.90
2018-09-09T20:55:27.350Z,7.30
2018-09-09T21:42:07.888Z,7.30
2018-09-09T21:44:35.770Z,8.73
2018-09-09T21:47:03.666Z,8.10
2018-09-09T21:49:31.554Z,9.70
2018-09-09T21:51:59.408Z,9.17
2018-09-09T21:54:27.266Z,7.23
2018-09-09T21:56:56.089Z,7.53
2018-09-09T21:59:24.026Z,7.53
2018-09-09T22:01:57.439Z,7.07
2018-09-09T22:04:25.361Z,7.63
2018-09-09T22:06:53.197Z,7.47
2018-09-09T22:09:22.069Z,7.27
2018-09-09T22:11:49.963Z,7.80
2018-09-09T22:14:17.843Z,7.47
2018-09-09T22:16:45.714Z,8.20
2018-09-09T22:19:13.536Z,8.37
2018-09-09T22:21:41.394Z,9.10
2018-09-09T22:24:10.351Z,8.20
2018-09-09T22:26:38.253Z,7.20
2018-09-09T22:29:06.094Z,7.90
2018-09-09T22:31:33.950Z,8.27
2018-09-09T22:34:05.301Z,7.80
2018-09-09T22:36:34.081Z,7.50
2018-09-09T22:39:02.892Z,8.00
2018-09-09T22:41:30.817Z,7.37
2018-09-09T22:43:58.667Z,8.00
2018-09-09T22:46:26.590Z,7.80
2018-09-09T22:48:54.429Z,9.10
2018-09-09T22:51:22.446Z,7.67
2018-09-09T22:53:50.369Z,8.00
2018-09-09T22:56:18.297Z,8.43
2018-09-09T22:58:46.153Z,8.43
2018-09-09T23:01:13.956Z,8.30
2018-09-09T23:03:41.865Z,8.53
2018-09-09T23:06:09.672Z,8.30
2018-09-09T23:08:37.562Z,7.80
2018-09-09T23:11:05.437Z,8.60
2018-09-09T23:13:33.430Z,8.63
2018-09-09T23:16:01.355Z,8.20
2018-09-09T23:18:29.210Z,8.30
2018-09-09T23:20:57.040Z,7.73
2018-09-09T23:23:24.876Z,7.90
2018-09-09T23:25:52.685Z,7.87
2018-09-09T23:28:20.577Z,8.23
2018-09-09T23:30:48.445Z,8.23
2018-09-09T23:33:16.310Z,7.97
2018-09-09T23:35:44.184Z,7.20
2018-09-09T23:38:12.074Z,8.27
2018-09-09T23:40:39.938Z,8.53
2018-09-09T23:43:07.813Z,8.33
2018-09-09T23:45:35.666Z,8.30
2018-09-09T23:57:52.049Z,8.35
